WAT4203 LGSM-LGRP
Flight info
| Callsign | WAT4203 |
|---|---|
| Flight time | 0h 26m |
| Altitude | 15000 |
| Route | LARKI H59 KOPAR UL995 CODIC |
| Aircraft | A320/M-SDE3FGHIRWY/LB1 |
Departure
| Time | 2026-05-08 10:37 |
|---|---|
| Airport | Samos Airport (LGSM) |
Arrival
| Time | 2026-05-08 11:04 |
|---|---|
| Airport | Rhodes International Airport "Diagoras" (LGRP) |
| Time | Latitude | Longitude | Altitude | Speed | Heading |
|---|---|---|---|---|---|
| 2026-05-08 10:24 | 37.69059 | 26.91329 | 29 ft | 0 kts | 3° |
| 2026-05-08 10:31 | 37.69050 | 26.91328 | 29 ft | 3 kts | 1° |
| 2026-05-08 10:32 | 37.69030 | 26.91329 | 29 ft | 3 kts | 349° |
| 2026-05-08 10:32 | 37.69011 | 26.91336 | 29 ft | 3 kts | 328° |
| 2026-05-08 10:32 | 37.68997 | 26.91350 | 29 ft | 3 kts | 289° |
| 2026-05-08 10:32 | 37.68995 | 26.91363 | 29 ft | 1 kts | 274° |
| 2026-05-08 10:33 | 37.68995 | 26.91366 | 29 ft | 0 kts | 274° |
| 2026-05-08 10:34 | 37.68995 | 26.91363 | 29 ft | 3 kts | 274° |
| 2026-05-08 10:34 | 37.68999 | 26.91286 | 29 ft | 10 kts | 274° |
| 2026-05-08 10:34 | 37.69004 | 26.91205 | 29 ft | 8 kts | 274° |
| 2026-05-08 10:34 | 37.69008 | 26.91141 | 29 ft | 8 kts | 274° |
| 2026-05-08 10:35 | 37.68992 | 26.91064 | 29 ft | 9 kts | 215° |
| 2026-05-08 10:35 | 37.68942 | 26.91031 | 29 ft | 8 kts | 231° |
| 2026-05-08 10:35 | 37.68934 | 26.90899 | 29 ft | 20 kts | 274° |
| 2026-05-08 10:35 | 37.68946 | 26.90729 | 29 ft | 20 kts | 275° |
| 2026-05-08 10:36 | 37.68957 | 26.90553 | 29 ft | 20 kts | 274° |
| 2026-05-08 10:36 | 37.68967 | 26.90373 | 29 ft | 21 kts | 274° |
| 2026-05-08 10:36 | 37.68963 | 26.90218 | 29 ft | 9 kts | 256° |
| 2026-05-08 10:36 | 37.68975 | 26.90211 | 29 ft | 1 kts | 63° |
| 2026-05-08 10:37 | 37.68973 | 26.90283 | 29 ft | 22 kts | 94° |
| 2026-05-08 10:37 | 37.68939 | 26.90806 | 29 ft | 96 kts | 94° |
| 2026-05-08 10:37 | 37.68874 | 26.91902 | 87 ft | 147 kts | 95° |
| 2026-05-08 10:37 | 37.68745 | 26.93134 | 784 ft | 143 kts | 111° |
| 2026-05-08 10:38 | 37.68126 | 26.94111 | 1411 ft | 145 kts | 148° |
| 2026-05-08 10:38 | 37.67160 | 26.94514 | 1934 ft | 155 kts | 181° |
| 2026-05-08 10:38 | 37.66096 | 26.94078 | 2289 ft | 173 kts | 219° |
| 2026-05-08 10:38 | 37.65162 | 26.93007 | 2660 ft | 191 kts | 224° |
| 2026-05-08 10:39 | 37.64138 | 26.91792 | 2966 ft | 215 kts | 221° |
| 2026-05-08 10:39 | 37.62732 | 26.90961 | 3393 ft | 240 kts | 187° |
| 2026-05-08 10:39 | 37.60982 | 26.90990 | 3948 ft | 260 kts | 178° |
| 2026-05-08 10:39 | 37.59156 | 26.91169 | 4860 ft | 265 kts | 175° |
| 2026-05-08 10:40 | 37.57366 | 26.91783 | 5776 ft | 272 kts | 154° |
| 2026-05-08 10:40 | 37.55699 | 26.92961 | 6711 ft | 276 kts | 152° |
| 2026-05-08 10:40 | 37.54035 | 26.94194 | 7618 ft | 279 kts | 151° |
| 2026-05-08 10:40 | 37.52359 | 26.95456 | 8538 ft | 282 kts | 151° |
| 2026-05-08 10:41 | 37.50670 | 26.96731 | 9456 ft | 285 kts | 151° |
| 2026-05-08 10:41 | 37.48959 | 26.98017 | 10336 ft | 288 kts | 152° |
| 2026-05-08 10:41 | 37.47169 | 26.99352 | 10718 ft | 311 kts | 152° |
| 2026-05-08 10:41 | 37.45235 | 27.00784 | 10986 ft | 334 kts | 152° |
| 2026-05-08 10:42 | 37.43177 | 27.02306 | 11385 ft | 350 kts | 152° |
| 2026-05-08 10:42 | 37.41050 | 27.03884 | 12058 ft | 357 kts | 152° |
| 2026-05-08 10:42 | 37.38900 | 27.05484 | 12796 ft | 361 kts | 151° |
| 2026-05-08 10:42 | 37.36724 | 27.07106 | 13539 ft | 366 kts | 151° |
| 2026-05-08 10:43 | 37.34514 | 27.08750 | 14231 ft | 370 kts | 152° |
| 2026-05-08 10:43 | 37.32283 | 27.10409 | 14860 ft | 375 kts | 152° |
| 2026-05-08 10:43 | 37.30022 | 27.12089 | 15467 ft | 380 kts | 152° |
| 2026-05-08 10:43 | 37.27727 | 27.13786 | 16067 ft | 385 kts | 152° |
| 2026-05-08 10:44 | 37.25406 | 27.15498 | 16661 ft | 390 kts | 152° |
| 2026-05-08 10:44 | 37.23050 | 27.17236 | 17250 ft | 395 kts | 152° |
| 2026-05-08 10:44 | 37.20669 | 27.18995 | 17847 ft | 399 kts | 152° |
| 2026-05-08 10:44 | 37.18267 | 27.20773 | 18427 ft | 403 kts | 152° |
| 2026-05-08 10:45 | 37.15842 | 27.22570 | 18905 ft | 408 kts | 152° |
| 2026-05-08 10:45 | 37.13382 | 27.24385 | 19130 ft | 412 kts | 152° |
| 2026-05-08 10:45 | 37.10886 | 27.26217 | 19194 ft | 423 kts | 152° |
| 2026-05-08 10:45 | 37.08292 | 27.28117 | 19202 ft | 438 kts | 152° |
| 2026-05-08 10:46 | 37.05643 | 27.30062 | 19201 ft | 442 kts | 152° |
| 2026-05-08 10:46 | 37.02988 | 27.32014 | 19197 ft | 443 kts | 152° |
| 2026-05-08 10:46 | 37.00334 | 27.33966 | 19197 ft | 443 kts | 152° |
| 2026-05-08 10:46 | 36.97671 | 27.35924 | 19192 ft | 443 kts | 152° |
| 2026-05-08 10:47 | 36.95010 | 27.37880 | 19192 ft | 443 kts | 152° |
| 2026-05-08 10:47 | 36.92351 | 27.39825 | 19191 ft | 444 kts | 152° |
| 2026-05-08 10:47 | 36.89679 | 27.41773 | 19189 ft | 445 kts | 152° |
| 2026-05-08 10:47 | 36.87012 | 27.43723 | 19192 ft | 445 kts | 152° |
| 2026-05-08 10:48 | 36.84338 | 27.45679 | 19189 ft | 445 kts | 152° |
| 2026-05-08 10:48 | 36.81667 | 27.47630 | 19190 ft | 445 kts | 152° |
| 2026-05-08 10:48 | 36.78995 | 27.49583 | 19194 ft | 445 kts | 152° |
| 2026-05-08 10:48 | 36.76321 | 27.51534 | 19197 ft | 444 kts | 152° |
| 2026-05-08 10:49 | 36.73651 | 27.53471 | 19203 ft | 444 kts | 152° |
| 2026-05-08 10:49 | 36.70997 | 27.55395 | 19075 ft | 436 kts | 152° |
| 2026-05-08 10:49 | 36.68408 | 27.57276 | 18846 ft | 427 kts | 152° |
| 2026-05-08 10:49 | 36.65854 | 27.59136 | 18591 ft | 421 kts | 152° |
| 2026-05-08 10:50 | 36.63344 | 27.60964 | 18038 ft | 416 kts | 152° |
| 2026-05-08 10:50 | 36.60867 | 27.62764 | 17495 ft | 410 kts | 152° |
| 2026-05-08 10:50 | 36.58412 | 27.64541 | 16957 ft | 405 kts | 152° |
| 2026-05-08 10:50 | 36.55992 | 27.66288 | 16428 ft | 400 kts | 152° |
| 2026-05-08 10:51 | 36.53592 | 27.68018 | 15898 ft | 397 kts | 152° |
| 2026-05-08 10:51 | 36.51229 | 27.69773 | 15340 ft | 394 kts | 147° |
| 2026-05-08 10:51 | 36.49137 | 27.71958 | 14791 ft | 394 kts | 135° |
| 2026-05-08 10:51 | 36.47442 | 27.74622 | 14244 ft | 392 kts | 123° |
| 2026-05-08 10:52 | 36.46215 | 27.77639 | 13615 ft | 392 kts | 111° |
| 2026-05-08 10:52 | 36.45512 | 27.80891 | 13013 ft | 389 kts | 100° |
| 2026-05-08 10:52 | 36.45074 | 27.84197 | 12386 ft | 386 kts | 99° |
| 2026-05-08 10:52 | 36.44632 | 27.87480 | 11752 ft | 384 kts | 100° |
| 2026-05-08 10:53 | 36.44192 | 27.90742 | 11133 ft | 382 kts | 100° |
| 2026-05-08 10:53 | 36.43760 | 27.93939 | 10957 ft | 367 kts | 100° |
| 2026-05-08 10:53 | 36.43348 | 27.96991 | 10829 ft | 351 kts | 100° |
| 2026-05-08 10:53 | 36.42951 | 27.99918 | 10709 ft | 337 kts | 100° |
| 2026-05-08 10:54 | 36.42568 | 28.02734 | 10589 ft | 325 kts | 100° |
| 2026-05-08 10:54 | 36.42198 | 28.05445 | 10470 ft | 313 kts | 100° |
| 2026-05-08 10:54 | 36.41838 | 28.08073 | 10278 ft | 305 kts | 99° |
| 2026-05-08 10:54 | 36.41483 | 28.10649 | 10151 ft | 301 kts | 99° |
| 2026-05-08 10:55 | 36.41127 | 28.13224 | 9853 ft | 305 kts | 99° |
| 2026-05-08 10:55 | 36.40770 | 28.15806 | 9479 ft | 303 kts | 99° |
| 2026-05-08 10:55 | 36.40423 | 28.18333 | 9123 ft | 300 kts | 99° |
| 2026-05-08 10:55 | 36.40067 | 28.20913 | 8725 ft | 299 kts | 99° |
| 2026-05-08 10:56 | 36.39723 | 28.23413 | 8337 ft | 297 kts | 99° |
| 2026-05-08 10:56 | 36.39377 | 28.25932 | 7962 ft | 295 kts | 99° |
| 2026-05-08 10:56 | 36.39035 | 28.28411 | 7358 ft | 290 kts | 99° |
| 2026-05-08 10:56 | 36.38697 | 28.30873 | 6691 ft | 289 kts | 99° |
| 2026-05-08 10:57 | 36.38441 | 28.33326 | 6021 ft | 284 kts | 88° |
| 2026-05-08 10:57 | 36.38880 | 28.35682 | 5419 ft | 282 kts | 62° |
| 2026-05-08 10:57 | 36.41766 | 28.38669 | 4529 ft | 275 kts | 12° |
| 2026-05-08 10:58 | 36.43646 | 28.38795 | 4096 ft | 271 kts | 348° |
| 2026-05-08 10:58 | 36.45349 | 28.37969 | 3916 ft | 257 kts | 325° |
| 2026-05-08 10:58 | 36.46596 | 28.36499 | 3811 ft | 241 kts | 304° |
| 2026-05-08 10:58 | 36.47287 | 28.34677 | 3712 ft | 227 kts | 283° |
| 2026-05-08 10:59 | 36.47421 | 28.32778 | 3601 ft | 217 kts | 264° |
| 2026-05-08 10:59 | 36.47057 | 28.30985 | 3380 ft | 212 kts | 250° |
| 2026-05-08 10:59 | 36.46564 | 28.29300 | 3123 ft | 203 kts | 250° |
| 2026-05-08 10:59 | 36.46096 | 28.27690 | 2879 ft | 191 kts | 251° |
| 2026-05-08 11:00 | 36.45653 | 28.26167 | 2627 ft | 185 kts | 251° |
| 2026-05-08 11:00 | 36.45221 | 28.24683 | 2386 ft | 179 kts | 251° |
| 2026-05-08 11:00 | 36.44808 | 28.23261 | 2155 ft | 171 kts | 252° |
| 2026-05-08 11:00 | 36.44422 | 28.21937 | 1939 ft | 158 kts | 251° |
| 2026-05-08 11:01 | 36.44045 | 28.20691 | 1702 ft | 150 kts | 251° |
| 2026-05-08 11:01 | 36.43712 | 28.19518 | 1584 ft | 140 kts | 253° |
| 2026-05-08 11:01 | 36.43389 | 28.18400 | 1378 ft | 136 kts | 252° |
| 2026-05-08 11:01 | 36.43071 | 28.17309 | 1194 ft | 133 kts | 251° |
| 2026-05-08 11:02 | 36.42755 | 28.16217 | 1044 ft | 135 kts | 252° |
| 2026-05-08 11:02 | 36.42123 | 28.14048 | 667 ft | 134 kts | 251° |
| 2026-05-08 11:02 | 36.41804 | 28.12955 | 557 ft | 134 kts | 252° |
| 2026-05-08 11:03 | 36.41490 | 28.11865 | 350 ft | 133 kts | 250° |
| 2026-05-08 11:03 | 36.41173 | 28.10794 | 184 ft | 131 kts | 250° |
| 2026-05-08 11:03 | 36.40971 | 28.10091 | 46 ft | 130 kts | 250° |
| 2026-05-08 11:03 | 36.40697 | 28.09160 | 31 ft | 92 kts | 250° |
| 2026-05-08 11:04 | 36.40535 | 28.08603 | 28 ft | 52 kts | 250° |
| 2026-05-08 11:04 | 36.40424 | 28.08221 | 27 ft | 41 kts | 249° |
| 2026-05-08 11:04 | 36.40327 | 28.08012 | 29 ft | 22 kts | 231° |
| 2026-05-08 11:04 | 36.40218 | 28.07885 | 28 ft | 19 kts | 219° |
| 2026-05-08 11:05 | 36.40154 | 28.07931 | 28 ft | 15 kts | 77° |
| 2026-05-08 11:05 | 36.40188 | 28.08051 | 28 ft | 14 kts | 70° |
| 2026-05-08 11:05 | 36.40220 | 28.08160 | 28 ft | 13 kts | 70° |
| 2026-05-08 11:05 | 36.40250 | 28.08262 | 28 ft | 14 kts | 70° |
| 2026-05-08 11:06 | 36.40300 | 28.08429 | 28 ft | 26 kts | 70° |
| 2026-05-08 11:06 | 36.40368 | 28.08663 | 28 ft | 28 kts | 70° |
| 2026-05-08 11:06 | 36.40396 | 28.08815 | 28 ft | 17 kts | 84° |
| 2026-05-08 11:06 | 36.40398 | 28.08954 | 28 ft | 16 kts | 86° |
| 2026-05-08 11:07 | 36.40423 | 28.09083 | 28 ft | 15 kts | 71° |
| 2026-05-08 11:07 | 36.40450 | 28.09181 | 28 ft | 8 kts | 82° |
| 2026-05-08 11:07 | 36.40422 | 28.09217 | 28 ft | 5 kts | 156° |
| 2026-05-08 11:07 | 36.40395 | 28.09230 | 28 ft | 2 kts | 160° |
| 2026-05-08 11:08 | 36.40392 | 28.09231 | 28 ft | 1 kts | 160° |